createdAt,value
2022-12-20T00:01:36.539Z,18.10
2022-12-20T00:04:06.625Z,18.03
2022-12-20T00:06:36.490Z,19.30
2022-12-20T00:09:06.881Z,16.83
2022-12-20T00:11:34.968Z,16.47
2022-12-20T00:14:04.232Z,15.40
2022-12-20T00:16:32.913Z,17.37
2022-12-20T00:19:03.370Z,17.23
2022-12-20T00:21:32.296Z,16.77
2022-12-20T00:24:00.870Z,16.37
2022-12-20T00:26:30.539Z,16.03
2022-12-20T00:28:58.981Z,19.50
2022-12-20T00:31:30.396Z,19.90
2022-12-20T00:34:00.112Z,15.40
2022-12-20T00:36:30.421Z,13.73
2022-12-20T00:38:59.480Z,16.10
2022-12-20T00:41:29.225Z,13.50
2022-12-20T00:43:57.132Z,12.60
2022-12-20T00:46:26.380Z,11.10
2022-12-20T00:48:56.857Z,10.93
2022-12-20T00:51:27.205Z,10.50
2022-12-20T00:53:55.598Z,11.60
2022-12-20T00:56:24.161Z,12.57
2022-12-20T00:58:54.658Z,10.97
2022-12-20T01:01:25.327Z,15.40
2022-12-20T01:03:55.801Z,12.73
2022-12-20T01:06:24.356Z,12.53
2022-12-20T01:08:52.672Z,11.27
2022-12-20T01:11:23.081Z,13.80
2022-12-20T01:13:52.514Z,14.00
2022-12-20T01:16:25.481Z,14.53
2022-12-20T01:18:55.595Z,11.87
2022-12-20T01:21:25.316Z,12.43
2022-12-20T01:23:53.654Z,11.37
2022-12-20T01:26:24.165Z,13.17
2022-12-20T01:28:55.186Z,12.67
2022-12-20T01:31:23.789Z,13.83
2022-12-20T01:33:52.524Z,11.40
2022-12-20T01:36:25.281Z,11.57
2022-12-20T01:38:57.877Z,11.23
2022-12-20T01:41:26.565Z,11.77
2022-12-20T01:43:59.714Z,10.60
2022-12-20T01:46:30.395Z,13.47
2022-12-20T01:49:03.410Z,11.57
2022-12-20T01:51:37.145Z,13.87
2022-12-20T01:54:11.186Z,13.13
2022-12-20T01:56:41.240Z,11.63
2022-12-20T01:59:09.857Z,11.70
2022-12-20T02:01:37.931Z,12.33
2022-12-20T02:04:05.952Z,11.63
2022-12-20T02:06:35.210Z,12.60
2022-12-20T02:09:05.531Z,12.37
2022-12-20T02:11:47.941Z,13.33
2022-12-20T02:14:25.210Z,12.03
2022-12-20T02:16:58.699Z,13.53
2022-12-20T02:19:54.859Z,12.33
2022-12-20T02:22:31.893Z,12.67
2022-12-20T02:25:25.179Z,12.63
2022-12-20T02:28:00.057Z,12.87
2022-12-20T02:30:35.685Z,14.50
2022-12-20T02:33:05.385Z,12.43
2022-12-20T02:35:35.500Z,14.73
2022-12-20T02:38:24.915Z,11.50
2022-12-20T02:40:57.130Z,15.53
2022-12-20T02:43:43.583Z,12.33
2022-12-20T02:46:14.212Z,9.97
2022-12-20T02:48:43.533Z,11.07
2022-12-20T02:51:12.879Z,10.20
2022-12-20T02:53:42.977Z,10.50
2022-12-20T02:56:17.763Z,9.80
2022-12-20T02:58:50.897Z,10.23
2022-12-20T03:01:26.077Z,10.77
2022-12-20T03:03:55.557Z,12.57
2022-12-20T03:06:23.448Z,11.13
2022-12-20T03:08:51.366Z,11.33
2022-12-20T03:11:20.486Z,11.10
2022-12-20T03:13:48.449Z,11.20
2022-12-20T03:16:16.367Z,10.53
2022-12-20T03:18:46.195Z,11.33
2022-12-20T03:21:14.415Z,11.13
2022-12-20T03:23:42.299Z,12.10
2022-12-20T03:26:10.217Z,13.00
2022-12-20T03:28:38.157Z,12.83
2022-12-20T03:31:06.198Z,11.10
2022-12-20T03:33:34.175Z,12.27
2022-12-20T03:36:03.415Z,13.40
2022-12-20T03:38:31.256Z,14.43
2022-12-20T03:40:59.123Z,12.50
2022-12-20T03:43:29.120Z,12.57
2022-12-20T03:45:57.105Z,14.10
2022-12-20T03:48:25.234Z,13.50
2022-12-20T03:50:53.102Z,11.57
2022-12-20T03:53:22.380Z,13.20
2022-12-20T03:55:50.243Z,12.40
2022-12-20T03:58:18.140Z,12.80
2022-12-20T04:00:46.013Z,14.83
2022-12-20T04:03:13.944Z,14.03
2022-12-20T04:05:42.177Z,15.20
2022-12-20T04:08:10.124Z,13.37
2022-12-20T04:10:59.416Z,12.67
2022-12-20T04:13:27.251Z,14.83
2022-12-20T04:15:59.999Z,11.50
2022-12-20T04:18:28.700Z,13.50
2022-12-20T04:20:56.573Z,13.53
2022-12-20T04:23:24.414Z,13.37
2022-12-20T04:25:53.826Z,12.93
2022-12-20T04:28:21.777Z,15.07
2022-12-20T04:30:50.228Z,13.73
2022-12-20T04:33:18.092Z,17.00
2022-12-20T04:35:46.014Z,15.80
2022-12-20T04:38:13.902Z,17.53
2022-12-20T04:40:41.799Z,14.87
2022-12-20T04:43:11.128Z,14.90
2022-12-20T04:45:39.043Z,14.90
2022-12-20T04:48:37.195Z,14.77
2022-12-20T04:50:56.031Z,15.37
2022-12-20T04:53:41.759Z,17.03
2022-12-20T04:56:09.932Z,13.83
2022-12-20T04:58:39.148Z,17.93
2022-12-20T05:01:07.047Z,17.20
2022-12-20T05:03:34.995Z,17.17
2022-12-20T05:06:03.106Z,17.80
2022-12-20T05:08:31.046Z,16.07
2022-12-20T05:10:58.929Z,16.53
2022-12-20T05:13:26.872Z,16.40
2022-12-20T05:15:57.102Z,18.53
2022-12-20T05:18:25.318Z,17.23
2022-12-20T05:21:16.566Z,17.40
2022-12-20T05:24:02.610Z,18.90
2022-12-20T05:26:33.187Z,20.57
2022-12-20T05:29:01.032Z,19.43
2022-12-20T05:31:30.580Z,26.03
2022-12-20T05:33:58.498Z,26.33
2022-12-20T05:36:26.412Z,26.07
2022-12-20T05:38:58.214Z,27.07
2022-12-20T05:41:31.405Z,26.00
2022-12-20T05:43:59.396Z,25.17
2022-12-20T05:46:27.477Z,19.97
2022-12-20T05:48:56.759Z,20.30
2022-12-20T05:51:24.724Z,20.40
2022-12-20T05:53:52.597Z,21.00
2022-12-20T05:56:20.441Z,21.07
2022-12-20T05:58:48.648Z,26.70
2022-12-20T06:01:16.593Z,22.60
2022-12-20T06:03:45.806Z,20.33
2022-12-20T13:57:27.201Z,12.10
2022-12-20T14:00:03.583Z,10.27
2022-12-20T14:02:37.764Z,11.90
2022-12-20T14:05:14.778Z,13.70
2022-12-20T14:07:43.702Z,14.57
2022-12-20T14:10:20.861Z,13.03
2022-12-20T14:12:54.438Z,12.00
2022-12-20T14:15:33.531Z,12.13
2022-12-20T14:18:07.112Z,13.00
2022-12-20T14:20:37.109Z,13.53
2022-12-20T14:23:07.173Z,15.40
2022-12-20T14:25:43.354Z,19.20
2022-12-20T14:28:26.970Z,16.00
2022-12-20T14:30:56.970Z,16.60
2022-12-20T14:33:31.386Z,22.80
2022-12-20T14:36:08.225Z,22.27
2022-12-20T14:38:36.209Z,19.23
2022-12-20T14:41:04.251Z,24.23
2022-12-20T14:43:37.913Z,26.27
2022-12-20T14:46:20.115Z,29.20
2022-12-20T14:48:48.259Z,28.20
2022-12-20T14:51:22.139Z,30.50
2022-12-20T14:53:53.367Z,33.00
2022-12-20T14:56:31.318Z,33.03
2022-12-20T14:59:07.991Z,33.43
2022-12-20T15:01:41.727Z,33.97
2022-12-20T15:04:24.274Z,23.33
2022-12-20T15:06:53.358Z,25.23
2022-12-20T15:09:21.730Z,33.20
2022-12-20T15:11:51.612Z,39.30
2022-12-20T15:14:33.006Z,27.13
2022-12-20T15:17:01.208Z,25.37
2022-12-20T15:19:31.334Z,22.70
2022-12-20T15:21:59.350Z,19.73
2022-12-20T15:24:28.780Z,25.03
2022-12-20T15:26:57.704Z,26.73
2022-12-20T15:29:28.783Z,28.23
2022-12-20T15:32:05.348Z,22.50
2022-12-20T15:34:36.532Z,34.50
2022-12-20T15:37:05.887Z,25.70
2022-12-20T15:39:34.832Z,23.77
2022-12-20T15:42:05.745Z,25.67
2022-12-20T15:44:36.164Z,31.00
2022-12-20T15:47:04.543Z,43.17
2022-12-20T15:49:33.574Z,27.17
2022-12-20T15:52:01.461Z,29.97
2022-12-20T15:54:31.491Z,32.90
2022-12-20T15:57:02.933Z,32.07
2022-12-20T16:02:24.644Z,30.53
2022-12-20T16:04:53.531Z,23.13
2022-12-20T16:07:21.833Z,26.53
2022-12-20T16:09:49.870Z,26.53
2022-12-20T16:12:20.438Z,25.17
2022-12-20T16:14:48.514Z,33.43
2022-12-20T16:17:17.088Z,26.93
2022-12-20T16:19:47.337Z,39.30
2022-12-20T16:22:17.550Z,46.33
2022-12-20T16:24:46.325Z,41.70
2022-12-20T16:27:14.271Z,37.07
2022-12-20T16:29:42.412Z,35.03
2022-12-20T16:32:15.563Z,36.63
2022-12-20T16:34:43.835Z,24.50
2022-12-20T16:37:13.192Z,26.80
2022-12-20T16:39:41.425Z,29.43
2022-12-20T16:42:14.915Z,25.77
2022-12-20T16:44:45.330Z,50.83
2022-12-20T16:47:14.653Z,23.83
2022-12-20T16:49:49.650Z,24.80
2022-12-20T16:52:22.880Z,23.47
2022-12-20T16:54:51.348Z,21.67
2022-12-20T16:57:19.718Z,22.70
2022-12-20T16:59:47.683Z,21.00
2022-12-20T17:02:23.668Z,24.80
2022-12-20T17:04:52.101Z,24.23
2022-12-20T17:07:21.424Z,25.60
2022-12-20T17:12:34.756Z,24.70
2022-12-20T17:15:03.100Z,29.40
2022-12-20T17:17:30.950Z,28.60
2022-12-20T17:19:58.960Z,26.50
2022-12-20T17:25:20.806Z,29.17
2022-12-20T17:27:48.843Z,29.63
2022-12-20T17:30:17.021Z,34.03
2022-12-20T17:32:45.618Z,35.90
2022-12-20T17:35:30.439Z,32.13
2022-12-20T17:38:01.863Z,32.63
2022-12-20T17:40:30.454Z,34.10
2022-12-20T17:42:58.335Z,40.27
2022-12-20T17:45:29.801Z,36.63
2022-12-20T17:47:58.781Z,36.80
2022-12-20T17:50:27.829Z,40.83
2022-12-20T17:52:55.879Z,35.10
2022-12-20T17:55:27.536Z,43.13
2022-12-20T17:57:56.357Z,42.90
2022-12-20T18:00:29.636Z,45.63
2022-12-20T18:03:02.759Z,48.03
2022-12-20T18:05:31.005Z,53.23
2022-12-20T18:07:58.948Z,53.27
2022-12-20T18:10:28.276Z,60.70
2022-12-20T18:12:56.400Z,56.53
2022-12-20T18:15:24.386Z,46.10
2022-12-20T18:17:52.259Z,44.43
2022-12-20T18:20:20.305Z,39.20
2022-12-20T18:22:48.253Z,37.80
2022-12-20T18:25:18.332Z,40.13
2022-12-20T18:27:47.822Z,48.23
2022-12-20T18:30:15.954Z,38.53
2022-12-20T18:32:43.830Z,42.90
2022-12-20T18:35:12.052Z,54.20
2022-12-20T18:37:39.925Z,38.40
2022-12-20T18:40:09.680Z,34.47
2022-12-20T18:42:37.833Z,37.10
2022-12-20T18:45:08.212Z,37.63
2022-12-20T18:47:37.678Z,28.60
2022-12-20T18:50:06.881Z,35.60
2022-12-20T18:52:34.839Z,33.90
2022-12-20T18:55:02.813Z,33.33
2022-12-20T18:57:30.863Z,31.43
2022-12-20T18:59:58.892Z,33.20
2022-12-20T19:02:28.587Z,26.57
2022-12-20T19:04:57.828Z,20.33
2022-12-20T19:07:25.951Z,23.23
2022-12-20T19:09:53.991Z,23.17
2022-12-20T19:12:21.981Z,25.30
2022-12-20T19:14:50.221Z,23.10
2022-12-20T19:17:18.206Z,20.97
2022-12-20T19:19:47.724Z,23.40
2022-12-20T19:22:15.620Z,21.23
2022-12-20T19:24:43.539Z,21.37
2022-12-20T19:27:11.423Z,19.47
2022-12-20T19:29:39.333Z,28.03
2022-12-20T19:32:07.211Z,22.63
2022-12-20T19:34:35.164Z,22.03
2022-12-20T19:37:04.416Z,18.13
2022-12-20T19:39:32.276Z,20.67
2022-12-20T19:42:22.891Z,20.40
2022-12-20T19:44:48.664Z,20.77
2022-12-20T19:47:16.629Z,24.53
2022-12-20T19:49:44.503Z,25.20
2022-12-20T19:52:13.776Z,25.43
2022-12-20T19:54:43.289Z,24.40
2022-12-20T19:57:11.284Z,18.73
2022-12-20T19:59:39.129Z,25.53
2022-12-20T20:02:07.791Z,22.40
2022-12-20T20:04:35.898Z,24.37
2022-12-20T20:07:04.618Z,17.33
2022-12-20T20:09:34.015Z,16.40
2022-12-20T20:12:02.004Z,16.57
2022-12-20T20:14:30.412Z,19.07
2022-12-20T20:16:58.565Z,16.57
2022-12-20T20:19:26.527Z,17.27
2022-12-20T20:21:54.396Z,21.10
2022-12-20T20:24:22.400Z,18.73
2022-12-20T20:26:51.735Z,16.03
2022-12-20T20:29:20.368Z,15.60
2022-12-20T20:31:48.488Z,16.77
2022-12-20T20:34:16.396Z,14.13
2022-12-20T20:36:44.258Z,15.33
2022-12-20T20:39:12.348Z,17.10
2022-12-20T20:41:40.824Z,19.20
2022-12-20T20:44:11.800Z,15.10
2022-12-20T20:46:39.770Z,18.37
2022-12-20T20:49:07.715Z,16.73
2022-12-20T20:51:35.602Z,16.97
2022-12-20T20:54:03.486Z,17.23
2022-12-20T20:56:31.488Z,14.23
2022-12-20T20:59:05.860Z,15.97
2022-12-20T21:01:37.617Z,16.60
2022-12-20T21:04:06.415Z,17.97
2022-12-20T21:06:40.929Z,18.50
2022-12-20T21:09:09.628Z,19.23
2022-12-20T21:11:37.836Z,20.60
2022-12-20T21:14:05.974Z,19.20
2022-12-20T21:16:35.453Z,17.07
2022-12-20T21:19:05.730Z,18.97
2022-12-20T21:21:33.700Z,19.40
2022-12-20T21:24:01.587Z,18.13
2022-12-20T21:26:29.467Z,17.87
2022-12-20T21:28:58.862Z,17.10
2022-12-20T21:31:26.822Z,15.40
2022-12-20T21:33:55.721Z,19.67
2022-12-20T21:36:25.129Z,17.40
2022-12-20T21:38:55.659Z,19.40
2022-12-20T21:41:25.770Z,25.37
2022-12-20T21:43:57.750Z,22.00
2022-12-20T21:46:26.035Z,26.93
2022-12-20T21:48:54.012Z,21.67
2022-12-20T21:51:26.508Z,18.07
2022-12-20T21:53:56.174Z,21.67
2022-12-20T21:56:25.260Z,16.87
2022-12-20T21:58:53.188Z,18.00
2022-12-20T22:01:23.263Z,18.63
2022-12-20T22:03:52.450Z,16.87
2022-12-20T22:06:20.957Z,14.87
2022-12-20T22:08:50.704Z,13.00
2022-12-20T22:11:19.871Z,11.70
2022-12-20T22:13:48.328Z,14.43
2022-12-20T22:16:18.161Z,13.23
2022-12-20T22:18:50.153Z,11.27
2022-12-20T22:21:21.577Z,13.87
2022-12-20T22:23:51.191Z,13.37
2022-12-20T22:26:21.545Z,14.63
2022-12-20T22:28:51.738Z,13.90
2022-12-20T22:31:20.374Z,14.20
2022-12-20T22:33:49.465Z,13.13
2022-12-20T22:36:17.752Z,11.30
2022-12-20T22:38:46.061Z,15.73
2022-12-20T22:41:17.750Z,13.17
2022-12-20T22:43:47.350Z,12.27
2022-12-20T22:46:16.984Z,12.90
2022-12-20T22:48:45.713Z,14.70
2022-12-20T22:51:15.563Z,15.60
2022-12-20T22:53:44.291Z,12.37
2022-12-20T22:56:13.148Z,11.43
2022-12-20T22:58:42.328Z,12.20
2022-12-20T23:01:13.075Z,11.67
2022-12-20T23:03:41.453Z,14.30
2022-12-20T23:06:12.845Z,13.00
2022-12-20T23:08:40.919Z,13.77
2022-12-20T23:11:49.342Z,15.57
2022-12-20T23:14:38.003Z,16.83
2022-12-20T23:17:07.107Z,15.63
2022-12-20T23:20:04.123Z,18.13
2022-12-20T23:22:48.721Z,18.10
2022-12-20T23:25:19.191Z,16.70
2022-12-20T23:27:49.276Z,16.60
2022-12-20T23:30:22.599Z,19.13
2022-12-20T23:32:50.531Z,23.00
2022-12-20T23:35:20.763Z,20.90
2022-12-20T23:37:49.419Z,19.77
2022-12-20T23:40:18.144Z,23.83
2022-12-20T23:42:46.307Z,25.07
2022-12-20T23:45:14.582Z,24.60
2022-12-20T23:47:43.761Z,30.63
2022-12-20T23:50:12.142Z,36.77
2022-12-20T23:52:40.550Z,42.23
2022-12-20T23:55:09.721Z,36.20
2022-12-20T23:57:37.645Z,36.97
